Bunker Hill, Kansas
Current Conditions -  °F | °C
As of 1:53 PM on Saturday 25 Oct 2014 (Local Time) from KRSL Reporting Station
Clear Clear  
Wind Chill: 85°   Ceiling: Unl
Heat Index: 85°   Visibility: 10mi
Dew Point: 51°   Wind: 9mph
Humidity: 31%   Direction: 160°SSE
Pressure: 30.03"   Gusts: NA
Location:  38.88°N, 98.7°W
Report Text: KRSL 251853Z AUTO 16008KT 10SM CLR 29/11 A3003 RMK AO2 SLP154 T02940106
Loading
Personal Weather Stations






























Interactive Weather Map
Tropical Storm Tracking
New forecast layout! Learn more

10-Day Weather Forecast

Advertisements
Track Severe Weather on mobile